Time;durP1;ratioP1;P1;durP2;ratioP2;P2;SDS_P1;SDS_P2;PMS_P1;PMS_P2;Temp;Humidity;BMP_temperature;BMP_pressure;BME280_temperature;BME280_humidity;BME280_pressure;Samples;Min_cycle;Max_cycle;Signal;HPM_P1;HPM_P2
2021/12/06 00:01:13;;;;;;;13.90;9.63;;;3.40;98.50;;;;;;5049644;28;20838;-45
2021/12/06 00:03:46;;;;;;;16.10;9.37;;;3.40;98.50;;;;;;5050907;28;20483;-45
2021/12/06 00:06:14;;;;;;;11.10;8.03;;;3.50;98.50;;;;;;5054661;28;21135;-45
2021/12/06 00:08:40;;;;;;;16.57;9.50;;;3.50;98.40;;;;;;5054817;28;20484;-45
2021/12/06 00:11:09;;;;;;;22.77;11.50;;;3.50;98.50;;;;;;5052894;28;20490;-45
2021/12/06 00:13:36;;;;;;;14.00;10.10;;;3.50;98.60;;;;;;5050960;28;20776;-45
2021/12/06 00:16:09;;;;;;;16.30;9.83;;;3.60;98.60;;;;;;5055377;28;20479;-45
2021/12/06 00:18:37;;;;;;;16.90;11.23;;;3.60;98.40;;;;;;5043953;28;20513;-45
2021/12/06 00:21:05;;;;;;;22.50;11.60;;;3.60;98.30;;;;;;5045977;28;20476;-45
2021/12/06 00:23:32;;;;;;;20.63;12.70;;;3.60;98.30;;;;;;5049952;28;20962;-44
2021/12/06 00:25:59;;;;;;;18.10;10.70;;;3.70;98.20;;;;;;5051926;28;20482;-45
2021/12/06 00:28:27;;;;;;;17.60;10.17;;;3.60;98.00;;;;;;5055764;28;21329;-45
2021/12/06 00:30:55;;;;;;;16.30;10.60;;;3.50;98.20;;;;;;5051825;28;20537;-50
2021/12/06 00:33:24;;;;;;;12.63;9.20;;;3.50;98.30;;;;;;5049929;28;20483;-45
2021/12/06 00:35:51;;;;;;;15.37;9.10;;;3.50;98.20;;;;;;5054403;28;20939;-45
2021/12/06 00:38:17;;;;;;;9.30;6.50;;;3.40;98.00;;;;;;5046915;28;20492;-45
2021/12/06 00:40:47;;;;;;;10.87;7.60;;;3.30;98.20;;;;;;5061496;28;20475;-44
2021/12/06 00:43:15;;;;;;;12.10;8.40;;;3.20;98.60;;;;;;5052085;28;20968;-45
2021/12/06 00:45:43;;;;;;;11.70;7.73;;;3.20;98.70;;;;;;5063069;28;20544;-45
2021/12/06 00:48:10;;;;;;;12.27;8.17;;;3.20;98.70;;;;;;5084061;28;20544;-45
2021/12/06 00:50:41;;;;;;;13.47;9.40;;;3.30;98.40;;;;;;5062918;28;20491;-45
2021/12/06 00:53:08;;;;;;;15.80;9.47;;;3.30;98.40;;;;;;5042648;28;20812;-45
2021/12/06 00:55:36;;;;;;;18.47;10.70;;;3.30;98.20;;;;;;5046543;28;20497;-45
2021/12/06 00:58:04;;;;;;;12.70;9.30;;;3.40;98.10;;;;;;5060100;28;20478;-45
2021/12/06 01:00:35;;;;;;;11.80;8.73;;;3.30;98.10;;;;;;5071640;28;20482;-46
2021/12/06 01:03:03;;;;;;;16.33;10.07;;;3.10;97.80;;;;;;5078497;28;20469;-45
2021/12/06 01:05:30;;;;;;;12.40;8.53;;;2.90;98.10;;;;;;5083830;28;20475;-45
2021/12/06 01:07:58;;;;;;;10.97;8.17;;;2.80;98.30;;;;;;5075406;28;20477;-45
2021/12/06 01:10:27;;;;;;;12.37;7.97;;;2.70;98.50;;;;;;5072111;28;20544;-45
2021/12/06 01:12:54;;;;;;;11.80;7.83;;;2.80;98.70;;;;;;5059573;28;20494;-46
2021/12/06 01:15:21;;;;;;;13.27;8.90;;;2.90;98.60;;;;;;5046564;28;20806;-45
2021/12/06 01:17:48;;;;;;;12.17;8.73;;;2.90;98.40;;;;;;5068244;28;20491;-45
2021/12/06 01:20:20;;;;;;;12.13;8.97;;;2.90;98.30;;;;;;5054813;28;20575;-45
2021/12/06 01:22:52;;;;;;;14.10;8.80;;;2.90;98.00;;;;;;5058631;28;20492;-45
2021/12/06 01:25:30;;;;;;;12.63;8.67;;;3.00;98.20;;;;;;5061069;28;20478;-45
2021/12/06 01:30:55;;;;;;;10.30;8.00;;;3.00;98.20;;;;;;5051518;28;20842;-46
2021/12/06 01:41:49;;;;;;;10.10;7.80;;;3.00;97.60;;;;;;5039821;28;20536;-46
2021/12/06 01:44:18;;;;;;;10.70;8.67;;;2.90;97.60;;;;;;5058944;28;20477;-46
2021/12/06 01:46:48;;;;;;;14.10;8.27;;;2.90;97.60;;;;;;5062061;28;20551;-45
2021/12/06 01:49:17;;;;;;;10.57;8.03;;;2.70;96.70;;;;;;5050224;28;20487;-45
2021/12/06 01:51:45;;;;;;;9.30;7.90;;;2.40;97.10;;;;;;5061746;28;20517;-48
2021/12/06 01:54:12;;;;;;;11.47;8.50;;;2.30;97.40;;;;;;5055485;28;20485;-45
2021/12/06 01:56:39;;;;;;;13.10;8.43;;;2.20;97.80;;;;;;5064982;28;20544;-45
2021/12/06 01:59:08;;;;;;;10.13;8.30;;;2.20;97.90;;;;;;5052988;28;20519;-45
2021/12/06 02:01:35;;;;;;;13.50;7.80;;;2.10;98.10;;;;;;5051501;28;20548;-45
2021/12/06 02:04:03;;;;;;;8.67;6.93;;;2.20;98.10;;;;;;5072830;28;20477;-45
2021/12/06 02:06:30;;;;;;;12.20;7.20;;;2.30;98.10;;;;;;5044981;28;20495;-45
2021/12/06 02:08:57;;;;;;;12.53;7.70;;;2.30;98.00;;;;;;5077806;28;20953;-45
2021/12/06 02:11:26;;;;;;;11.37;8.30;;;2.40;97.80;;;;;;5048957;28;20961;-45
2021/12/06 02:14:00;;;;;;;17.57;10.83;;;2.40;98.00;;;;;;5053392;28;20527;-45
2021/12/06 02:16:37;;;;;;;59.07;13.73;;;2.40;98.10;;;;;;5045860;28;20476;-45
2021/12/06 02:19:05;;;;;;;23.73;12.87;;;2.50;98.40;;;;;;5053202;28;20490;-45
2021/12/06 02:21:36;;;;;;;15.67;10.60;;;2.60;98.60;;;;;;5078658;28;20565;-45
2021/12/06 02:24:09;;;;;;;14.77;8.20;;;2.60;98.50;;;;;;5055041;28;20976;-45
2021/12/06 02:26:36;;;;;;;16.43;8.87;;;2.70;98.30;;;;;;5063204;28;20494;-45
2021/12/06 02:29:04;;;;;;;13.13;8.90;;;2.70;98.20;;;;;;5058664;28;20499;-45
2021/12/06 02:31:31;;;;;;;10.10;7.17;;;2.80;98.20;;;;;;5051185;28;20482;-45
2021/12/06 02:33:58;;;;;;;22.37;12.23;;;2.80;98.10;;;;;;5069839;28;20517;-49
2021/12/06 02:36:26;;;;;;;23.10;11.40;;;2.80;98.00;;;;;;5065500;28;21122;-45
2021/12/06 02:38:55;;;;;;;16.87;9.50;;;2.90;98.20;;;;;;5057130;28;20489;-45
2021/12/06 02:41:22;;;;;;;20.23;11.17;;;2.90;98.20;;;;;;5085591;28;20482;-45
2021/12/06 02:43:50;;;;;;;23.30;12.60;;;3.00;98.30;;;;;;5077119;28;20476;-45
2021/12/06 02:46:17;;;;;;;37.70;15.40;;;3.10;98.40;;;;;;5056088;28;20487;-45
2021/12/06 02:48:44;;;;;;;35.50;16.50;;;3.10;98.30;;;;;;5061696;28;20673;-45
2021/12/06 02:51:11;;;;;;;37.73;17.03;;;3.10;98.30;;;;;;5062364;28;21112;-45
2021/12/06 02:53:39;;;;;;;50.00;18.17;;;3.20;98.40;;;;;;5072877;28;20566;-45
2021/12/06 02:56:18;;;;;;;28.77;17.00;;;3.20;98.40;;;;;;5076564;28;20594;-45
2021/12/06 02:58:56;;;;;;;28.90;11.53;;;3.20;98.10;;;;;;5086043;28;20477;-45
2021/12/06 03:01:27;;;;;;;24.87;11.27;;;3.20;98.20;;;;;;5068462;28;20487;-45
2021/12/06 03:03:54;;;;;;;20.30;11.67;;;3.20;97.90;;;;;;5063175;28;20936;-45
2021/12/06 03:06:21;;;;;;;24.93;10.87;;;3.20;98.00;;;;;;5062724;28;20992;-45
2021/12/06 03:08:53;;;;;;;31.00;12.27;;;3.20;97.90;;;;;;5078853;28;20494;-45
2021/12/06 03:11:23;;;;;;;47.37;14.73;;;3.10;97.80;;;;;;5054578;28;20475;-45
2021/12/06 03:13:51;;;;;;;53.07;14.93;;;2.80;97.80;;;;;;5053777;28;20474;-45
2021/12/06 03:16:17;;;;;;;64.33;16.33;;;2.70;98.30;;;;;;5058276;28;21011;-45
2021/12/06 03:18:46;;;;;;;95.30;16.73;;;2.50;98.60;;;;;;5056738;28;20533;-46
2021/12/06 03:21:12;;;;;;;157.67;21.17;;;2.40;98.90;;;;;;5060222;28;20498;-45
2021/12/06 03:23:39;;;;;;;89.10;15.70;;;2.20;99.40;;;;;;5059834;28;20476;-45
2021/12/06 03:26:06;;;;;;;115.93;19.13;;;2.20;99.70;;;;;;5062607;28;21279;-45
2021/12/06 03:28:37;;;;;;;124.37;22.30;;;2.20;99.90;;;;;;5062184;28;20620;-45
2021/12/06 03:31:04;;;;;;;52.00;11.20;;;2.30;99.90;;;;;;5050893;28;20495;-45
2021/12/06 03:33:32;;;;;;;41.70;13.47;;;2.30;99.90;;;;;;5062307;28;20500;-45
2021/12/06 03:35:58;;;;;;;179.37;23.53;;;2.40;99.80;;;;;;5061584;28;20979;-46
2021/12/06 03:38:25;;;;;;;259.33;26.43;;;2.40;99.50;;;;;;5064038;28;21047;-46
2021/12/06 03:40:52;;;;;;;198.43;23.40;;;2.20;99.60;;;;;;5067114;28;20491;-45
2021/12/06 03:43:18;;;;;;;149.43;23.20;;;2.10;99.90;;;;;;5077041;28;20471;-45
2021/12/06 03:45:47;;;;;;;65.57;15.07;;;2.10;99.90;;;;;;5074049;28;20890;-45
2021/12/06 03:48:13;;;;;;;165.37;22.37;;;2.20;99.90;;;;;;5077113;28;20534;-45
2021/12/06 03:50:40;;;;;;;226.50;25.70;;;2.20;99.90;;;;;;5064077;28;20496;-46
2021/12/06 03:53:07;;;;;;;318.07;31.07;;;2.20;99.90;;;;;;5067108;28;20857;-45
2021/12/06 03:55:34;;;;;;;152.10;20.50;;;2.10;99.90;;;;;;5061253;28;20490;-45
2021/12/06 03:58:01;;;;;;;167.90;22.77;;;2.00;99.90;;;;;;5057430;28;20504;-45
2021/12/06 04:04:42;;;;;;;83.20;15.20;;;2.10;99.90;;;;;;5050482;28;20839;-45
2021/12/06 04:07:38;;;;;;;102.53;15.50;;;2.20;99.90;;;;;;5030226;28;20486;-45
2021/12/06 04:10:08;;;;;;;97.57;14.30;;;2.30;99.90;;;;;;5063926;28;20479;-45
2021/12/06 04:12:35;;;;;;;95.80;15.60;;;2.50;99.90;;;;;;5064029;28;20563;-45
2021/12/06 04:15:02;;;;;;;107.77;14.13;;;2.60;99.90;;;;;;5060014;28;20479;-50
2021/12/06 04:17:28;;;;;;;85.20;15.50;;;2.70;99.90;;;;;;5062521;28;20482;-45
2021/12/06 04:19:55;;;;;;;52.87;10.93;;;2.80;99.90;;;;;;5076440;28;20486;-45
2021/12/06 04:22:22;;;;;;;75.47;12.63;;;2.90;99.90;;;;;;5055589;28;20478;-45
2021/12/06 04:24:50;;;;;;;224.97;22.70;;;3.00;99.90;;;;;;5055214;28;20500;-45
2021/12/06 04:27:19;;;;;;;261.60;27.83;;;2.90;99.30;;;;;;5057087;28;20551;-45
2021/12/06 04:29:48;;;;;;;204.53;22.83;;;2.80;99.40;;;;;;5059546;28;20968;-45
2021/12/06 04:32:15;;;;;;;194.47;23.60;;;2.60;99.70;;;;;;5049644;28;20535;-45
2021/12/06 04:34:42;;;;;;;295.57;28.10;;;2.50;99.90;;;;;;5061559;28;22013;-45
2021/12/06 04:37:10;;;;;;;210.33;22.73;;;2.40;99.90;;;;;;5080423;28;20479;-45
2021/12/06 04:39:38;;;;;;;190.03;21.57;;;2.40;99.90;;;;;;5033853;28;20482;-45
2021/12/06 04:42:07;;;;;;;122.90;21.23;;;2.40;99.90;;;;;;5056251;28;21079;-45
2021/12/06 04:44:34;;;;;;;74.10;15.70;;;2.30;99.90;;;;;;5058280;28;20480;-45
2021/12/06 04:47:02;;;;;;;81.33;12.90;;;2.40;99.90;;;;;;5063505;28;21226;-45
2021/12/06 04:49:29;;;;;;;44.87;11.33;;;2.50;99.90;;;;;;5044334;28;20481;-54
2021/12/06 04:51:58;;;;;;;76.23;12.90;;;2.60;99.90;;;;;;5057049;28;20478;-45
2021/12/06 04:54:29;;;;;;;126.27;15.83;;;2.80;99.90;;;;;;5033698;28;21033;-45
2021/12/06 04:57:03;;;;;;;72.27;14.80;;;2.90;99.90;;;;;;5049606;28;20535;-45
2021/12/06 04:59:34;;;;;;;65.53;13.03;;;3.00;99.90;;;;;;5070836;28;21306;-45
2021/12/06 05:02:04;;;;;;;66.20;13.77;;;3.10;99.80;;;;;;5059633;27;20480;-45
2021/12/06 05:04:37;;;;;;;113.00;16.00;;;3.20;99.60;;;;;;5067520;28;20555;-45
2021/12/06 05:07:08;;;;;;;48.13;11.90;;;3.20;99.50;;;;;;5063806;28;21134;-46
2021/12/06 05:09:37;;;;;;;26.50;10.30;;;3.20;99.30;;;;;;5050462;28;20495;-45
2021/12/06 05:12:06;;;;;;;26.57;11.90;;;3.00;99.30;;;;;;5059180;28;20493;-45
2021/12/06 05:14:35;;;;;;;20.30;9.07;;;3.00;99.60;;;;;;5064166;28;20482;-45
2021/12/06 05:17:02;;;;;;;17.13;9.03;;;2.90;99.90;;;;;;5044314;28;20479;-45
2021/12/06 05:19:28;;;;;;;20.07;10.50;;;3.10;99.90;;;;;;5054884;28;20484;-45
2021/12/06 05:21:56;;;;;;;21.37;9.77;;;3.20;99.90;;;;;;5060425;28;20849;-45
2021/12/06 05:24:22;;;;;;;20.80;10.03;;;3.20;99.80;;;;;;5060242;28;20481;-45
2021/12/06 05:26:49;;;;;;;18.63;11.50;;;3.30;99.80;;;;;;5046228;28;20481;-45
2021/12/06 05:29:22;;;;;;;24.50;9.97;;;3.40;99.70;;;;;;5060035;28;20573;-45
2021/12/06 05:31:55;;;;;;;17.20;10.40;;;3.50;99.50;;;;;;5047890;28;20494;-45
2021/12/06 05:34:29;;;;;;;28.47;11.87;;;3.50;99.40;;;;;;5068233;28;20482;-45
2021/12/06 05:36:57;;;;;;;31.30;10.80;;;3.50;99.20;;;;;;5064520;28;20586;-45
2021/12/06 05:39:27;;;;;;;45.40;11.57;;;3.50;99.30;;;;;;5072366;28;20481;-45
2021/12/06 05:41:53;;;;;;;63.73;13.50;;;3.50;99.20;;;;;;5047685;28;20558;-45
2021/12/06 05:44:20;;;;;;;43.23;13.27;;;3.50;99.10;;;;;;5056457;28;20483;-45
2021/12/06 05:46:47;;;;;;;23.33;11.57;;;3.50;99.20;;;;;;5064352;28;21205;-45
2021/12/06 05:49:15;;;;;;;29.80;11.77;;;3.50;99.10;;;;;;5053196;28;20482;-45
2021/12/06 05:51:42;;;;;;;79.63;16.50;;;3.60;99.10;;;;;;5055693;28;21312;-46
2021/12/06 05:54:08;;;;;;;21.50;9.47;;;3.60;99.00;;;;;;5056607;28;20556;-45
2021/12/06 05:56:35;;;;;;;23.67;10.80;;;3.60;99.00;;;;;;5058261;28;20573;-45
2021/12/06 05:59:02;;;;;;;70.10;15.67;;;3.60;98.90;;;;;;5060251;28;20483;-46
2021/12/06 06:01:30;;;;;;;99.87;17.23;;;3.70;98.90;;;;;;5063182;28;20994;-45
2021/12/06 06:04:00;;;;;;;86.50;14.40;;;3.60;98.80;;;;;;5062296;28;20496;-45
2021/12/06 06:06:29;;;;;;;68.43;15.97;;;3.60;98.70;;;;;;5065216;28;20486;-45
2021/12/06 06:08:56;;;;;;;63.10;14.60;;;3.40;98.70;;;;;;5080880;28;20560;-45
2021/12/06 06:11:23;;;;;;;37.57;12.90;;;3.20;99.10;;;;;;5055988;28;20487;-45
2021/12/06 06:13:50;;;;;;;101.27;16.00;;;3.20;99.40;;;;;;5046578;28;20482;-45
2021/12/06 06:16:20;;;;;;;31.50;12.43;;;3.10;99.30;;;;;;5054579;28;20475;-45
2021/12/06 06:18:48;;;;;;;33.67;10.77;;;3.00;99.50;;;;;;5055834;28;20549;-45
2021/12/06 06:21:15;;;;;;;45.23;12.80;;;3.10;99.70;;;;;;5055749;28;20492;-45
2021/12/06 06:23:43;;;;;;;22.37;9.43;;;3.10;99.70;;;;;;5071641;28;20482;-45
2021/12/06 06:26:10;;;;;;;22.57;10.73;;;3.20;99.80;;;;;;5048502;28;20482;-45
2021/12/06 06:28:37;;;;;;;21.20;10.73;;;3.20;99.60;;;;;;5068257;28;20499;-45
2021/12/06 06:31:04;;;;;;;19.07;10.53;;;3.10;99.60;;;;;;5042745;28;20494;-45
2021/12/06 06:33:31;;;;;;;28.80;11.30;;;3.00;99.90;;;;;;5045586;28;20515;-50
2021/12/06 06:35:58;;;;;;;36.50;11.97;;;3.10;99.90;;;;;;5043471;28;20485;-49
2021/12/06 06:38:24;;;;;;;20.30;11.90;;;3.10;99.90;;;;;;5033213;28;20491;-45
2021/12/06 06:40:53;;;;;;;25.37;11.83;;;3.20;99.90;;;;;;5042087;28;20491;-45
2021/12/06 06:43:20;;;;;;;24.67;11.37;;;3.30;99.90;;;;;;5056962;28;20483;-45
2021/12/06 06:45:47;;;;;;;37.03;13.03;;;3.40;99.90;;;;;;5051658;28;20513;-46
2021/12/06 06:48:15;;;;;;;17.13;9.43;;;3.50;99.60;;;;;;5065442;28;20482;-46
2021/12/06 06:50:41;;;;;;;62.50;14.17;;;3.40;99.50;;;;;;5055642;28;20488;-45
2021/12/06 06:53:08;;;;;;;39.30;12.13;;;3.40;99.60;;;;;;5055536;28;20486;-45
2021/12/06 06:55:35;;;;;;;16.50;9.93;;;3.40;99.70;;;;;;5084280;28;20512;-45
2021/12/06 06:58:03;;;;;;;23.40;10.47;;;3.50;99.70;;;;;;5078287;28;20895;-45
2021/12/06 07:00:33;;;;;;;32.67;13.37;;;3.60;99.70;;;;;;5069244;28;20491;-45
2021/12/06 07:03:01;;;;;;;38.37;12.40;;;3.60;99.50;;;;;;5066648;28;20547;-47
2021/12/06 07:05:29;;;;;;;26.23;11.90;;;3.60;99.60;;;;;;5062911;28;20478;-45
2021/12/06 07:07:56;;;;;;;37.17;12.10;;;3.70;99.60;;;;;;5071669;28;20854;-46
2021/12/06 07:10:23;;;;;;;36.73;13.83;;;3.70;99.40;;;;;;5073951;28;20482;-45
2021/12/06 07:12:52;;;;;;;34.60;14.17;;;3.70;99.40;;;;;;5056374;28;20569;-45
2021/12/06 07:15:22;;;;;;;33.90;12.83;;;3.70;99.40;;;;;;5060904;28;20477;-45
2021/12/06 07:17:51;;;;;;;24.73;11.47;;;3.80;99.40;;;;;;5065398;28;20930;-45
2021/12/06 07:20:18;;;;;;;29.87;12.37;;;3.80;99.30;;;;;;5032448;28;20478;-45
2021/12/06 07:22:47;;;;;;;33.90;11.80;;;3.90;99.40;;;;;;5050651;28;20493;-46
2021/12/06 07:25:15;;;;;;;25.93;12.27;;;3.90;99.30;;;;;;5065371;28;21056;-46
2021/12/06 07:27:43;;;;;;;26.23;12.73;;;3.90;99.20;;;;;;5071389;28;20493;-46
2021/12/06 07:30:11;;;;;;;23.83;11.13;;;3.90;99.20;;;;;;5074815;28;20869;-46
2021/12/06 07:32:40;;;;;;;18.30;10.70;;;4.00;99.20;;;;;;5067585;28;20525;-46
2021/12/06 07:35:08;;;;;;;22.60;11.60;;;4.00;99.20;;;;;;5058726;28;20571;-46
2021/12/06 07:37:35;;;;;;;20.67;10.77;;;4.10;99.30;;;;;;5029685;28;20494;-47
2021/12/06 07:40:04;;;;;;;21.97;11.27;;;4.10;99.20;;;;;;5037613;28;20482;-46
2021/12/06 07:42:30;;;;;;;22.90;11.20;;;4.10;99.20;;;;;;5027776;28;20538;-46
2021/12/06 07:44:57;;;;;;;16.73;9.13;;;4.20;99.20;;;;;;5054896;28;20484;-47
2021/12/06 07:47:24;;;;;;;19.60;10.47;;;4.20;99.10;;;;;;5048824;28;20516;-46
2021/12/06 07:49:52;;;;;;;21.20;13.17;;;4.20;99.10;;;;;;5058080;28;20482;-46
2021/12/06 07:52:19;;;;;;;20.03;12.43;;;4.20;99.10;;;;;;4999648;28;20494;-46
2021/12/06 07:54:45;;;;;;;28.80;12.30;;;4.30;98.90;;;;;;5074376;28;20482;-46
2021/12/06 07:57:12;;;;;;;30.23;13.17;;;4.10;98.70;;;;;;5016165;28;20935;-46
2021/12/06 07:59:40;;;;;;;19.40;11.20;;;4.00;99.00;;;;;;5069727;28;20493;-46
2021/12/06 08:02:09;;;;;;;21.60;10.87;;;4.00;99.10;;;;;;5072765;28;20924;-46
2021/12/06 08:04:37;;;;;;;23.00;10.43;;;4.10;99.20;;;;;;5049537;28;20493;-46
2021/12/06 08:07:05;;;;;;;17.43;9.67;;;4.10;99.20;;;;;;5050654;28;20487;-46
2021/12/06 08:09:32;;;;;;;21.60;10.50;;;4.10;99.20;;;;;;5048777;28;20519;-45
2021/12/06 08:11:59;;;;;;;24.67;11.50;;;4.20;99.20;;;;;;5047829;28;20620;-46
2021/12/06 08:14:26;;;;;;;24.43;10.03;;;4.20;99.00;;;;;;5040509;28;20911;-46
2021/12/06 08:16:53;;;;;;;22.00;11.20;;;4.20;99.00;;;;;;5049171;28;20852;-45
2021/12/06 08:19:20;;;;;;;45.77;13.70;;;4.30;99.10;;;;;;5018761;28;20506;-46
2021/12/06 08:21:47;;;;;;;17.80;9.23;;;4.30;99.10;;;;;;5077889;27;20531;-45
2021/12/06 08:24:15;;;;;;;20.90;11.20;;;4.40;99.00;;;;;;5075568;28;20492;-45
2021/12/06 08:26:42;;;;;;;89.57;14.60;;;4.30;98.90;;;;;;5066321;28;20582;-45
2021/12/06 08:29:13;;;;;;;30.60;11.70;;;4.30;98.70;;;;;;5065966;28;20709;-44
2021/12/06 08:31:41;;;;;;;115.80;16.73;;;4.20;98.60;;;;;;5088932;27;20498;-45
2021/12/06 08:34:08;;;;;;;20.97;10.40;;;4.20;98.90;;;;;;5049766;28;20489;-45
2021/12/06 08:36:35;;;;;;;22.37;10.80;;;4.30;99.00;;;;;;5041211;28;20491;-45
2021/12/06 08:39:03;;;;;;;15.23;10.27;;;4.40;99.00;;;;;;5050373;28;21200;-45
2021/12/06 08:41:32;;;;;;;21.40;11.50;;;4.50;99.10;;;;;;5050434;28;20487;-45
2021/12/06 08:44:01;;;;;;;18.80;10.17;;;4.40;98.60;;;;;;5068558;28;20529;-52
2021/12/06 08:46:31;;;;;;;19.53;10.17;;;4.40;98.90;;;;;;5035681;28;20502;-45
2021/12/06 08:49:00;;;;;;;19.40;10.43;;;4.40;99.00;;;;;;5029548;28;21008;-45
2021/12/06 08:51:29;;;;;;;19.43;10.33;;;4.50;98.60;;;;;;5050466;28;20578;-45
2021/12/06 08:54:00;;;;;;;25.67;13.60;;;4.40;98.80;;;;;;5029857;28;20496;-44
2021/12/06 08:56:27;;;;;;;70.80;16.90;;;4.40;98.80;;;;;;5034962;27;20477;-44
2021/12/06 08:58:57;;;;;;;33.93;14.10;;;4.30;98.70;;;;;;5096436;27;20481;-44
2021/12/06 09:01:24;;;;;;;42.83;12.37;;;4.30;99.00;;;;;;5059461;28;20890;-44
2021/12/06 09:03:51;;;;;;;23.97;11.87;;;4.30;99.10;;;;;;5054286;28;20853;-45
2021/12/06 09:06:18;;;;;;;33.63;13.40;;;4.40;99.10;;;;;;5045687;28;20480;-45
2021/12/06 09:08:45;;;;;;;33.57;13.57;;;4.40;98.70;;;;;;5087732;28;20472;-44
2021/12/06 09:11:12;;;;;;;104.03;17.10;;;4.20;98.60;;;;;;5054821;28;20479;-44
2021/12/06 09:13:40;;;;;;;127.53;17.83;;;4.20;99.00;;;;;;5054010;28;20486;-44
2021/12/06 09:16:09;;;;;;;82.40;14.90;;;4.10;98.90;;;;;;5045250;28;20548;-44
2021/12/06 09:18:40;;;;;;;121.67;18.13;;;4.10;99.00;;;;;;5038463;28;20495;-44
2021/12/06 09:21:10;;;;;;;107.97;14.93;;;4.10;99.00;;;;;;5056927;28;20490;-44
2021/12/06 09:23:37;;;;;;;114.07;15.87;;;4.00;99.00;;;;;;5045573;28;20486;-44
2021/12/06 09:26:05;;;;;;;116.57;13.40;;;4.00;98.90;;;;;;5047466;28;20488;-44
2021/12/06 09:28:32;;;;;;;78.90;11.70;;;4.00;99.00;;;;;;5052316;28;20483;-44
2021/12/06 09:30:59;;;;;;;316.77;27.20;;;4.10;99.20;;;;;;5043748;28;21015;-45
2021/12/06 09:33:27;;;;;;;129.83;14.80;;;4.10;99.10;;;;;;5052227;28;20619;-44
2021/12/06 09:35:57;;;;;;;256.73;26.33;;;4.20;99.30;;;;;;5041556;28;20572;-45
2021/12/06 09:38:27;;;;;;;133.57;17.43;;;4.30;99.30;;;;;;5053502;28;20482;-45
2021/12/06 09:40:58;;;;;;;249.23;22.63;;;4.40;99.40;;;;;;5044206;28;20507;-45
2021/12/06 09:43:25;;;;;;;189.13;17.87;;;4.50;99.30;;;;;;5051599;28;20788;-45
2021/12/06 09:45:54;;;;;;;164.03;18.37;;;4.60;98.70;;;;;;5050173;28;20480;-45
2021/12/06 09:48:22;;;;;;;165.63;15.17;;;4.60;98.90;;;;;;5047588;28;20983;-45
2021/12/06 09:50:54;;;;;;;117.83;15.47;;;4.60;98.70;;;;;;5051233;28;20874;-45
2021/12/06 09:53:24;;;;;;;247.93;22.17;;;4.50;98.50;;;;;;5039796;28;20517;-45
2021/12/06 09:55:53;;;;;;;140.77;13.80;;;4.50;98.50;;;;;;5043440;28;20487;-45
2021/12/06 09:58:22;;;;;;;74.43;13.13;;;4.50;98.60;;;;;;5037644;28;20891;-45
2021/12/06 10:00:52;;;;;;;171.93;16.53;;;4.50;99.00;;;;;;5051413;28;20490;-45
2021/12/06 10:03:24;;;;;;;123.67;13.13;;;4.50;99.00;;;;;;5049283;28;20849;-50
2021/12/06 10:05:53;;;;;;;215.43;19.67;;;4.60;99.10;;;;;;5046550;28;20651;-45
2021/12/06 10:08:20;;;;;;;128.77;14.43;;;4.60;99.00;;;;;;5036240;28;20952;-45
2021/12/06 10:10:47;;;;;;;117.17;13.60;;;4.60;99.00;;;;;;5031037;28;20488;-46
2021/12/06 10:13:16;;;;;;;133.40;29.13;;;4.60;99.10;;;;;;5045075;28;20494;-44
2021/12/06 10:15:43;;;;;;;85.67;16.33;;;4.60;98.90;;;;;;5045062;28;20480;-45
2021/12/06 10:18:14;;;;;;;132.87;17.97;;;4.60;99.00;;;;;;5017470;28;20547;-44
2021/12/06 10:20:43;;;;;;;75.43;10.97;;;4.70;99.10;;;;;;5055308;28;21151;-45
2021/12/06 10:23:11;;;;;;;85.60;13.30;;;4.80;99.50;;;;;;5028976;28;20967;-45
2021/12/06 10:25:41;;;;;;;56.90;9.17;;;4.70;98.80;;;;;;5034765;28;20488;-45
2021/12/06 10:28:08;;;;;;;104.27;13.30;;;4.80;99.20;;;;;;5020975;28;20505;-45
2021/12/06 10:30:37;;;;;;;70.20;18.90;;;4.90;99.20;;;;;;5058078;28;20519;-45
2021/12/06 10:33:06;;;;;;;70.33;11.10;;;4.90;99.30;;;;;;5030781;28;20493;-45
2021/12/06 10:35:34;;;;;;;49.10;10.47;;;4.90;98.90;;;;;;5055830;28;20896;-45
2021/12/06 10:38:01;;;;;;;42.73;12.90;;;4.80;99.10;;;;;;5044743;28;20494;-45
2021/12/06 10:40:31;;;;;;;13.90;8.47;;;4.80;99.00;;;;;;5051488;28;20536;-45
2021/12/06 10:43:00;;;;;;;29.33;8.70;;;4.80;99.30;;;;;;5033503;28;20988;-45
2021/12/06 10:45:30;;;;;;;40.87;9.33;;;4.90;99.00;;;;;;5030569;28;20469;-45
2021/12/06 10:48:12;;;;;;;32.60;8.13;;;4.70;99.00;;;;;;5039752;28;20483;-44
2021/12/06 10:50:42;;;;;;;55.60;10.60;;;4.60;98.90;;;;;;5017329;28;20495;-44
2021/12/06 10:53:11;;;;;;;31.80;9.60;;;4.60;99.10;;;;;;5044543;28;20554;-45
2021/12/06 10:55:41;;;;;;;78.60;12.60;;;4.50;99.10;;;;;;5040716;28;21034;-45
2021/12/06 10:58:11;;;;;;;102.63;13.57;;;4.40;99.40;;;;;;5043795;28;20488;-45
2021/12/06 11:00:43;;;;;;;242.00;25.87;;;4.40;99.60;;;;;;5047731;28;20511;-45
2021/12/06 11:03:30;;;;;;;54.90;11.23;;;4.40;99.70;;;;;;5025210;28;20481;-45
2021/12/06 11:06:01;;;;;;;103.23;16.57;;;4.40;99.90;;;;;;5029130;28;20547;-45
2021/12/06 11:08:29;;;;;;;36.77;9.90;;;4.30;99.90;;;;;;5041368;28;20479;-45
2021/12/06 11:11:00;;;;;;;15.00;9.03;;;4.40;99.90;;;;;;5049944;28;20855;-45
2021/12/06 11:13:30;;;;;;;15.13;7.77;;;4.50;99.90;;;;;;5042828;28;20479;-45
2021/12/06 11:16:06;;;;;;;30.07;9.43;;;4.60;99.90;;;;;;5046808;28;20818;-45
2021/12/06 11:18:49;;;;;;;12.67;6.87;;;4.70;99.90;;;;;;5040357;28;21288;-45
2021/12/06 11:21:27;;;;;;;11.33;7.60;;;4.80;99.90;;;;;;5038319;28;20989;-48
2021/12/06 11:24:03;;;;;;;14.30;7.80;;;4.70;99.90;;;;;;5045603;28;20495;-45
2021/12/06 11:26:33;;;;;;;14.00;8.60;;;4.60;99.90;;;;;;5067310;28;20493;-46
2021/12/06 11:29:06;;;;;;;13.43;7.23;;;4.70;99.90;;;;;;5049993;28;20491;-45
2021/12/06 11:31:32;;;;;;;9.50;6.67;;;4.80;99.90;;;;;;5064731;28;21085;-45
2021/12/06 11:34:01;;;;;;;14.37;8.37;;;4.90;99.90;;;;;;5041727;28;20511;-46
2021/12/06 11:36:30;;;;;;;14.90;8.47;;;5.00;99.90;;;;;;5042909;28;20477;-46
2021/12/06 11:39:04;;;;;;;14.30;8.27;;;5.10;99.90;;;;;;5072033;28;21047;-46
2021/12/06 11:41:32;;;;;;;14.87;8.53;;;5.10;99.90;;;;;;5075771;28;20490;-46
2021/12/06 11:44:00;;;;;;;7.57;5.73;;;5.20;99.90;;;;;;5064242;28;20980;-46
2021/12/06 11:46:29;;;;;;;10.13;5.57;;;5.40;99.90;;;;;;5052263;28;20474;-47
2021/12/06 11:48:56;;;;;;;13.47;7.00;;;5.60;99.90;;;;;;5044857;28;20862;-45
2021/12/06 11:51:24;;;;;;;9.93;6.97;;;5.70;99.90;;;;;;5028658;28;21290;-46
2021/12/06 11:53:54;;;;;;;12.17;7.90;;;5.90;99.80;;;;;;5039446;28;20474;-45
2021/12/06 11:56:24;;;;;;;10.03;5.57;;;6.00;99.20;;;;;;5048188;28;20479;-45
2021/12/06 11:58:54;;;;;;;8.57;6.03;;;5.90;98.70;;;;;;5047014;28;20538;-45
2021/12/06 12:01:26;;;;;;;12.07;8.70;;;5.90;99.10;;;;;;5044456;28;20785;-45
2021/12/06 12:03:55;;;;;;;14.30;7.23;;;5.90;99.20;;;;;;5062131;28;20480;-45
2021/12/06 12:06:26;;;;;;;13.53;6.73;;;5.80;98.70;;;;;;5054754;28;20477;-45
2021/12/06 12:09:04;;;;;;;11.87;6.30;;;5.80;99.00;;;;;;5052358;28;20513;-45
2021/12/06 12:11:31;;;;;;;9.97;6.87;;;5.80;99.00;;;;;;5030883;28;20484;-46
2021/12/06 12:14:11;;;;;;;17.50;7.33;;;5.80;99.20;;;;;;5048331;28;20482;-45
2021/12/06 12:16:37;;;;;;;10.00;6.50;;;5.90;99.10;;;;;;5014973;28;20569;-45
2021/12/06 12:19:04;;;;;;;8.43;6.00;;;5.90;99.00;;;;;;5025397;28;20511;-45
2021/12/06 12:21:31;;;;;;;8.03;5.43;;;6.10;99.60;;;;;;5028924;28;20485;-45
2021/12/06 12:23:59;;;;;;;7.23;5.83;;;6.10;99.00;;;;;;5036907;28;21070;-45
2021/12/06 12:26:26;;;;;;;8.13;6.70;;;6.20;99.50;;;;;;5037717;28;20482;-45
2021/12/06 12:29:00;;;;;;;8.87;5.50;;;6.20;98.70;;;;;;5026276;28;20481;-46
2021/12/06 12:31:30;;;;;;;6.50;4.97;;;6.10;98.50;;;;;;5024667;28;20812;-46
2021/12/06 12:33:58;;;;;;;5.53;4.70;;;6.00;98.40;;;;;;5038890;28;20481;-46
2021/12/06 12:36:26;;;;;;;8.90;5.47;;;5.70;98.10;;;;;;5049184;28;21006;-45
2021/12/06 12:38:57;;;;;;;11.10;7.47;;;5.50;98.20;;;;;;5044119;28;20496;-45
2021/12/06 12:41:28;;;;;;;12.10;6.43;;;5.30;98.80;;;;;;5042648;28;20488;-46
2021/12/06 12:44:01;;;;;;;13.87;6.70;;;5.30;99.00;;;;;;5042206;28;20476;-46
2021/12/06 12:46:34;;;;;;;10.37;7.03;;;5.10;99.00;;;;;;5048152;28;20542;-46
2021/12/06 12:49:04;;;;;;;10.77;9.43;;;4.90;99.20;;;;;;5043720;28;20828;-45
2021/12/06 12:51:34;;;;;;;8.60;5.73;;;4.70;99.10;;;;;;5053811;28;20552;-46
2021/12/06 12:54:05;;;;;;;9.40;7.37;;;4.60;99.60;;;;;;5034607;28;20472;-45
2021/12/06 12:56:35;;;;;;;11.13;8.70;;;4.70;99.50;;;;;;5063937;28;20838;-45
2021/12/06 12:59:17;;;;;;;14.60;9.70;;;4.50;99.00;;;;;;5066369;28;20641;-46
2021/12/06 13:02:05;;;;;;;15.13;8.60;;;4.30;99.00;;;;;;5055987;28;21014;-45